Augusta Springs, Virginia
Current Conditions -  °F | °C
As of 2:35 PM on Friday 24 Oct 2014 (Local Time) from KW13 Reporting Station
Clear Clear  
Wind Chill: 64°   Ceiling: Unl
Heat Index: 64°   Visibility: 10mi
Dew Point: 41°   Wind: 7mph
Humidity: 43%   Direction: 220°SW
Pressure: 29.97"   Gusts: NA
Location:  38.1°N, 79.32°W
Report Text: KW13 241835Z AUTO 22006KT 10SM CLR 18/05 A2997 RMK AO1 T01790050
Loading
Personal Weather Stations






























Interactive Weather Map
Tropical Storm Tracking
New forecast layout! Learn more

10-Day Weather Forecast

Advertisements
Track Severe Weather on mobile